PGT1548 LTFJ-LTBS
Flight info
| Callsign | PGT1548 |
|---|---|
| Flight time | 0h 53m |
| Altitude | 30000 |
| Route | ROXUK UT409 NUMTI UT241 DEN UW87 LAVTA W87 ATSAL |
| Aircraft | A21N/M-SDE2E3FGHIRWXY/LB1 |
Departure
| Time | 2026-04-15 10:25 |
|---|---|
| Airport | Istanbul Sabiha Gökçen International Airport (LTFJ) |
Arrival
| Time | 2026-04-15 11:18 |
|---|---|
| Airport | Dalaman International Airport (LTBS) |
| Time | Latitude | Longitude | Altitude | Speed | Heading |
|---|---|---|---|---|---|
| 2026-04-15 09:52 | 40.90642 | 29.31734 | 316 ft | 0 kts | 334° |
| 2026-04-15 10:12 | 40.90633 | 29.31740 | 316 ft | 4 kts | 333° |
| 2026-04-15 10:12 | 40.90610 | 29.31757 | 315 ft | 4 kts | 326° |
| 2026-04-15 10:13 | 40.90590 | 29.31779 | 316 ft | 5 kts | 302° |
| 2026-04-15 10:13 | 40.90585 | 29.31804 | 315 ft | 2 kts | 244° |
| 2026-04-15 10:13 | 40.90586 | 29.31806 | 315 ft | 1 kts | 244° |
| 2026-04-15 10:16 | 40.90584 | 29.31801 | 315 ft | 2 kts | 244° |
| 2026-04-15 10:16 | 40.90575 | 29.31778 | 313 ft | 4 kts | 244° |
| 2026-04-15 10:17 | 40.90560 | 29.31738 | 315 ft | 6 kts | 244° |
| 2026-04-15 10:17 | 40.90539 | 29.31681 | 315 ft | 8 kts | 244° |
| 2026-04-15 10:17 | 40.90512 | 29.31607 | 316 ft | 10 kts | 244° |
| 2026-04-15 10:17 | 40.90485 | 29.31536 | 316 ft | 7 kts | 244° |
| 2026-04-15 10:18 | 40.90460 | 29.31468 | 316 ft | 9 kts | 244° |
| 2026-04-15 10:18 | 40.90401 | 29.31442 | 315 ft | 11 kts | 157° |
| 2026-04-15 10:18 | 40.90334 | 29.31485 | 316 ft | 9 kts | 153° |
| 2026-04-15 10:18 | 40.90271 | 29.31487 | 314 ft | 11 kts | 230° |
| 2026-04-15 10:19 | 40.90238 | 29.31388 | 315 ft | 13 kts | 243° |
| 2026-04-15 10:19 | 40.90196 | 29.31275 | 316 ft | 14 kts | 244° |
| 2026-04-15 10:19 | 40.90150 | 29.31148 | 316 ft | 16 kts | 244° |
| 2026-04-15 10:19 | 40.90099 | 29.31011 | 316 ft | 17 kts | 244° |
| 2026-04-15 10:20 | 40.90044 | 29.30861 | 316 ft | 19 kts | 244° |
| 2026-04-15 10:20 | 40.89984 | 29.30700 | 316 ft | 20 kts | 244° |
| 2026-04-15 10:20 | 40.89922 | 29.30529 | 316 ft | 21 kts | 244° |
| 2026-04-15 10:20 | 40.89855 | 29.30349 | 315 ft | 22 kts | 244° |
| 2026-04-15 10:21 | 40.89785 | 29.30160 | 314 ft | 23 kts | 244° |
| 2026-04-15 10:21 | 40.89713 | 29.29964 | 313 ft | 20 kts | 244° |
| 2026-04-15 10:21 | 40.89650 | 29.29793 | 312 ft | 21 kts | 244° |
| 2026-04-15 10:21 | 40.89584 | 29.29613 | 308 ft | 22 kts | 244° |
| 2026-04-15 10:22 | 40.89517 | 29.29431 | 308 ft | 16 kts | 244° |
| 2026-04-15 10:22 | 40.89467 | 29.29293 | 309 ft | 17 kts | 244° |
| 2026-04-15 10:22 | 40.89441 | 29.29245 | 308 ft | 6 kts | 207° |
| 2026-04-15 10:22 | 40.89393 | 29.29254 | 309 ft | 8 kts | 156° |
| 2026-04-15 10:23 | 40.89354 | 29.29279 | 310 ft | 6 kts | 154° |
| 2026-04-15 10:23 | 40.89310 | 29.29306 | 306 ft | 8 kts | 154° |
| 2026-04-15 10:23 | 40.89285 | 29.29365 | 307 ft | 10 kts | 77° |
| 2026-04-15 10:23 | 40.89315 | 29.29457 | 310 ft | 12 kts | 63° |
| 2026-04-15 10:24 | 40.89376 | 29.29622 | 311 ft | 44 kts | 64° |
| 2026-04-15 10:24 | 40.89612 | 29.30261 | 315 ft | 108 kts | 65° |
| 2026-04-15 10:24 | 40.90021 | 29.31362 | 318 ft | 156 kts | 63° |
| 2026-04-15 10:24 | 40.90458 | 29.32677 | 826 ft | 154 kts | 64° |
| 2026-04-15 10:25 | 40.90941 | 29.33951 | 1347 ft | 157 kts | 61° |
| 2026-04-15 10:25 | 40.91457 | 29.35310 | 1786 ft | 175 kts | 62° |
| 2026-04-15 10:25 | 40.92026 | 29.36842 | 2285 ft | 195 kts | 63° |
| 2026-04-15 10:25 | 40.92623 | 29.38534 | 2915 ft | 211 kts | 69° |
| 2026-04-15 10:26 | 40.92914 | 29.40541 | 3359 ft | 236 kts | 94° |
| 2026-04-15 10:26 | 40.92470 | 29.42689 | 3971 ft | 252 kts | 121° |
| 2026-04-15 10:26 | 40.91260 | 29.44405 | 4673 ft | 261 kts | 148° |
| 2026-04-15 10:26 | 40.89626 | 29.45500 | 5534 ft | 267 kts | 157° |
| 2026-04-15 10:27 | 40.87903 | 29.46511 | 6306 ft | 276 kts | 158° |
| 2026-04-15 10:27 | 40.86150 | 29.47562 | 7050 ft | 282 kts | 157° |
| 2026-04-15 10:27 | 40.84345 | 29.48671 | 7949 ft | 284 kts | 156° |
| 2026-04-15 10:27 | 40.82570 | 29.49777 | 8835 ft | 287 kts | 156° |
| 2026-04-15 10:28 | 40.80754 | 29.50915 | 9717 ft | 291 kts | 156° |
| 2026-04-15 10:28 | 40.78899 | 29.52081 | 10413 ft | 303 kts | 156° |
| 2026-04-15 10:28 | 40.76900 | 29.53244 | 10779 ft | 324 kts | 163° |
| 2026-04-15 10:28 | 40.74637 | 29.53907 | 11164 ft | 341 kts | 172° |
| 2026-04-15 10:29 | 40.72263 | 29.54393 | 11857 ft | 348 kts | 173° |
| 2026-04-15 10:29 | 40.69848 | 29.54878 | 12650 ft | 352 kts | 173° |
| 2026-04-15 10:29 | 40.67415 | 29.55378 | 13469 ft | 357 kts | 173° |
| 2026-04-15 10:29 | 40.64940 | 29.55896 | 14270 ft | 361 kts | 172° |
| 2026-04-15 10:30 | 40.62449 | 29.56422 | 14987 ft | 365 kts | 172° |
| 2026-04-15 10:30 | 40.59932 | 29.56956 | 15686 ft | 369 kts | 172° |
| 2026-04-15 10:30 | 40.57376 | 29.57498 | 16371 ft | 373 kts | 173° |
| 2026-04-15 10:30 | 40.54799 | 29.58045 | 17031 ft | 378 kts | 173° |
| 2026-04-15 10:31 | 40.52184 | 29.58599 | 17688 ft | 382 kts | 173° |
| 2026-04-15 10:31 | 40.49543 | 29.59156 | 18336 ft | 386 kts | 173° |
| 2026-04-15 10:31 | 40.46873 | 29.59721 | 18916 ft | 391 kts | 173° |
| 2026-04-15 10:31 | 40.44187 | 29.60292 | 19475 ft | 394 kts | 173° |
| 2026-04-15 10:32 | 40.41460 | 29.60870 | 20028 ft | 397 kts | 174° |
| 2026-04-15 10:32 | 40.38723 | 29.61450 | 20572 ft | 400 kts | 174° |
| 2026-04-15 10:32 | 40.36000 | 29.62026 | 21096 ft | 403 kts | 174° |
| 2026-04-15 10:32 | 40.33188 | 29.62620 | 21623 ft | 406 kts | 174° |
| 2026-04-15 10:33 | 40.30384 | 29.63210 | 22124 ft | 410 kts | 174° |
| 2026-04-15 10:33 | 40.27596 | 29.63797 | 22601 ft | 412 kts | 175° |
| 2026-04-15 10:33 | 40.24753 | 29.64394 | 23057 ft | 415 kts | 175° |
| 2026-04-15 10:33 | 40.21888 | 29.64995 | 23490 ft | 417 kts | 175° |
| 2026-04-15 10:34 | 40.19008 | 29.65600 | 23886 ft | 420 kts | 175° |
| 2026-04-15 10:34 | 40.16112 | 29.66207 | 24320 ft | 423 kts | 175° |
| 2026-04-15 10:34 | 40.13197 | 29.66818 | 24781 ft | 426 kts | 175° |
| 2026-04-15 10:34 | 40.10260 | 29.67432 | 25230 ft | 429 kts | 175° |
| 2026-04-15 10:35 | 40.07305 | 29.68049 | 25668 ft | 432 kts | 175° |
| 2026-04-15 10:35 | 40.04330 | 29.68670 | 26113 ft | 434 kts | 175° |
| 2026-04-15 10:35 | 40.01330 | 29.69296 | 26512 ft | 437 kts | 175° |
| 2026-04-15 10:35 | 39.98319 | 29.69922 | 26919 ft | 439 kts | 175° |
| 2026-04-15 10:36 | 39.95284 | 29.70555 | 27317 ft | 442 kts | 176° |
| 2026-04-15 10:36 | 39.92232 | 29.71038 | 27683 ft | 441 kts | 182° |
| 2026-04-15 10:36 | 39.89237 | 29.70801 | 28036 ft | 435 kts | 195° |
| 2026-04-15 10:36 | 39.86362 | 29.69702 | 28385 ft | 429 kts | 208° |
| 2026-04-15 10:37 | 39.83749 | 29.67888 | 28700 ft | 424 kts | 216° |
| 2026-04-15 10:37 | 39.81230 | 29.65864 | 28975 ft | 424 kts | 216° |
| 2026-04-15 10:37 | 39.78724 | 29.63841 | 29249 ft | 424 kts | 216° |
| 2026-04-15 10:37 | 39.76209 | 29.61848 | 29521 ft | 423 kts | 216° |
| 2026-04-15 10:38 | 39.73692 | 29.59871 | 29809 ft | 422 kts | 216° |
| 2026-04-15 10:38 | 39.71177 | 29.57905 | 30087 ft | 421 kts | 216° |
| 2026-04-15 10:38 | 39.68657 | 29.55943 | 30209 ft | 422 kts | 216° |
| 2026-04-15 10:39 | 39.63638 | 29.51995 | 30202 ft | 420 kts | 218° |
| 2026-04-15 10:39 | 39.58832 | 29.47768 | 30184 ft | 419 kts | 219° |
| 2026-04-15 10:40 | 39.54010 | 29.43506 | 30184 ft | 419 kts | 218° |
| 2026-04-15 10:40 | 39.49178 | 29.39263 | 30172 ft | 420 kts | 218° |
| 2026-04-15 10:41 | 39.44335 | 29.35025 | 30180 ft | 419 kts | 218° |
| 2026-04-15 10:41 | 39.39500 | 29.30791 | 30177 ft | 419 kts | 218° |
| 2026-04-15 10:42 | 39.34664 | 29.26565 | 30165 ft | 419 kts | 217° |
| 2026-04-15 10:42 | 39.29867 | 29.22374 | 30179 ft | 418 kts | 217° |
| 2026-04-15 10:43 | 39.25055 | 29.18177 | 30177 ft | 417 kts | 217° |
| 2026-04-15 10:43 | 39.20236 | 29.13988 | 30181 ft | 418 kts | 217° |
| 2026-04-15 10:44 | 39.15408 | 29.09803 | 30171 ft | 418 kts | 216° |
| 2026-04-15 10:44 | 39.11395 | 29.06328 | 30182 ft | 417 kts | 216° |
| 2026-04-15 10:45 | 39.05794 | 29.01476 | 30169 ft | 416 kts | 216° |
| 2026-04-15 10:45 | 39.01789 | 28.98015 | 30169 ft | 411 kts | 216° |
| 2026-04-15 10:46 | 38.97042 | 28.93917 | 30187 ft | 416 kts | 216° |
| 2026-04-15 10:46 | 38.92221 | 28.89757 | 30179 ft | 418 kts | 217° |
| 2026-04-15 10:47 | 38.87424 | 28.85621 | 30176 ft | 418 kts | 216° |
| 2026-04-15 10:47 | 38.82588 | 28.81461 | 30176 ft | 418 kts | 216° |
| 2026-04-15 10:48 | 38.77754 | 28.77317 | 30170 ft | 417 kts | 216° |
| 2026-04-15 10:48 | 38.72941 | 28.73197 | 30159 ft | 413 kts | 216° |
| 2026-04-15 10:49 | 38.68170 | 28.69117 | 30158 ft | 414 kts | 216° |
| 2026-04-15 10:49 | 38.63359 | 28.65013 | 30173 ft | 419 kts | 216° |
| 2026-04-15 10:50 | 38.58215 | 28.61491 | 30159 ft | 424 kts | 200° |
| 2026-04-15 10:50 | 38.55306 | 28.60745 | 30166 ft | 429 kts | 187° |
| 2026-04-15 10:50 | 38.52303 | 28.60772 | 30163 ft | 433 kts | 179° |
| 2026-04-15 10:51 | 38.46293 | 28.61576 | 30158 ft | 434 kts | 177° |
| 2026-04-15 10:51 | 38.40320 | 28.62346 | 30046 ft | 426 kts | 178° |
| 2026-04-15 10:51 | 38.37411 | 28.62693 | 29703 ft | 415 kts | 178° |
| 2026-04-15 10:52 | 38.34549 | 28.63030 | 29408 ft | 410 kts | 178° |
| 2026-04-15 10:52 | 38.31719 | 28.63361 | 29122 ft | 408 kts | 178° |
| 2026-04-15 10:52 | 38.28897 | 28.63692 | 28853 ft | 406 kts | 178° |
| 2026-04-15 10:52 | 38.26087 | 28.64022 | 28588 ft | 405 kts | 178° |
| 2026-04-15 10:53 | 38.23289 | 28.64351 | 28314 ft | 403 kts | 178° |
| 2026-04-15 10:53 | 38.20535 | 28.64676 | 28053 ft | 401 kts | 178° |
| 2026-04-15 10:53 | 38.17759 | 28.65003 | 27788 ft | 400 kts | 177° |
| 2026-04-15 10:53 | 38.14995 | 28.65327 | 27529 ft | 398 kts | 177° |
| 2026-04-15 10:54 | 38.12241 | 28.65651 | 27271 ft | 397 kts | 177° |
| 2026-04-15 10:54 | 38.09499 | 28.65973 | 27014 ft | 395 kts | 177° |
| 2026-04-15 10:54 | 38.06774 | 28.66293 | 26751 ft | 391 kts | 178° |
| 2026-04-15 10:54 | 38.04066 | 28.66611 | 26510 ft | 389 kts | 178° |
| 2026-04-15 10:55 | 38.01379 | 28.66927 | 26259 ft | 386 kts | 178° |
| 2026-04-15 10:55 | 37.98704 | 28.67239 | 26014 ft | 385 kts | 178° |
| 2026-04-15 10:55 | 37.96042 | 28.67550 | 25765 ft | 383 kts | 178° |
| 2026-04-15 10:55 | 37.93387 | 28.67860 | 25518 ft | 382 kts | 177° |
| 2026-04-15 10:56 | 37.90742 | 28.68169 | 25280 ft | 381 kts | 177° |
| 2026-04-15 10:56 | 37.88143 | 28.68472 | 25045 ft | 380 kts | 177° |
| 2026-04-15 10:56 | 37.85522 | 28.68778 | 24806 ft | 377 kts | 177° |
| 2026-04-15 10:56 | 37.82916 | 28.69082 | 24568 ft | 375 kts | 177° |
| 2026-04-15 10:57 | 37.80317 | 28.69384 | 24343 ft | 374 kts | 177° |
| 2026-04-15 10:57 | 37.75144 | 28.69985 | 23879 ft | 372 kts | 177° |
| 2026-04-15 10:57 | 37.72567 | 28.70281 | 23643 ft | 371 kts | 177° |
| 2026-04-15 10:58 | 37.69993 | 28.70493 | 23375 ft | 370 kts | 179° |
| 2026-04-15 10:58 | 37.67426 | 28.70675 | 23098 ft | 369 kts | 179° |
| 2026-04-15 10:58 | 37.64866 | 28.70854 | 22823 ft | 368 kts | 178° |
| 2026-04-15 10:58 | 37.62320 | 28.71033 | 22559 ft | 367 kts | 178° |
| 2026-04-15 10:59 | 37.59776 | 28.71212 | 22297 ft | 366 kts | 178° |
| 2026-04-15 10:59 | 37.57238 | 28.71391 | 22035 ft | 365 kts | 178° |
| 2026-04-15 10:59 | 37.54696 | 28.71571 | 21776 ft | 364 kts | 178° |
| 2026-04-15 10:59 | 37.52161 | 28.71746 | 21513 ft | 364 kts | 179° |
| 2026-04-15 11:00 | 37.49654 | 28.71577 | 21244 ft | 361 kts | 192° |
| 2026-04-15 11:00 | 37.47252 | 28.70635 | 20988 ft | 360 kts | 202° |
| 2026-04-15 11:00 | 37.44938 | 28.69437 | 20750 ft | 359 kts | 203° |
| 2026-04-15 11:00 | 37.42635 | 28.68223 | 20467 ft | 358 kts | 203° |
| 2026-04-15 11:01 | 37.40369 | 28.67048 | 20085 ft | 355 kts | 202° |
| 2026-04-15 11:01 | 37.38085 | 28.65881 | 19658 ft | 354 kts | 202° |
| 2026-04-15 11:01 | 37.35798 | 28.64731 | 19230 ft | 354 kts | 202° |
| 2026-04-15 11:01 | 37.33515 | 28.63581 | 18803 ft | 354 kts | 203° |
| 2026-04-15 11:02 | 37.31221 | 28.62424 | 18366 ft | 356 kts | 203° |
| 2026-04-15 11:02 | 37.28917 | 28.61265 | 17874 ft | 357 kts | 203° |
| 2026-04-15 11:02 | 37.26611 | 28.60106 | 17426 ft | 357 kts | 203° |
| 2026-04-15 11:02 | 37.24288 | 28.58987 | 16966 ft | 359 kts | 200° |
| 2026-04-15 11:03 | 37.21812 | 28.58522 | 16494 ft | 360 kts | 180° |
| 2026-04-15 11:03 | 37.19358 | 28.59030 | 16067 ft | 355 kts | 168° |
| 2026-04-15 11:03 | 37.17006 | 28.59813 | 15714 ft | 343 kts | 167° |
| 2026-04-15 11:03 | 37.14779 | 28.60732 | 15424 ft | 332 kts | 155° |
| 2026-04-15 11:04 | 37.12992 | 28.62472 | 15162 ft | 324 kts | 129° |
| 2026-04-15 11:04 | 37.12001 | 28.64940 | 14918 ft | 316 kts | 103° |
| 2026-04-15 11:04 | 37.11969 | 28.67651 | 14678 ft | 312 kts | 79° |
| 2026-04-15 11:04 | 37.12411 | 28.70308 | 14440 ft | 311 kts | 76° |
| 2026-04-15 11:05 | 37.12879 | 28.72949 | 14131 ft | 309 kts | 77° |
| 2026-04-15 11:05 | 37.13310 | 28.75584 | 13810 ft | 308 kts | 78° |
| 2026-04-15 11:05 | 37.13711 | 28.78209 | 13475 ft | 306 kts | 79° |
| 2026-04-15 11:05 | 37.14090 | 28.80785 | 13129 ft | 304 kts | 79° |
| 2026-04-15 11:06 | 37.14464 | 28.83390 | 12789 ft | 302 kts | 79° |
| 2026-04-15 11:06 | 37.14834 | 28.86006 | 12455 ft | 301 kts | 80° |
| 2026-04-15 11:06 | 37.15191 | 28.88556 | 12129 ft | 299 kts | 80° |
| 2026-04-15 11:06 | 37.15548 | 28.91111 | 11805 ft | 297 kts | 80° |
| 2026-04-15 11:07 | 37.15840 | 28.93668 | 11475 ft | 295 kts | 89° |
| 2026-04-15 11:07 | 37.15406 | 28.96143 | 11136 ft | 291 kts | 120° |
| 2026-04-15 11:07 | 37.14129 | 28.98049 | 10823 ft | 284 kts | 140° |
| 2026-04-15 11:07 | 37.12623 | 28.99629 | 10518 ft | 280 kts | 142° |
| 2026-04-15 11:08 | 37.11133 | 29.01179 | 10202 ft | 277 kts | 141° |
| 2026-04-15 11:08 | 37.09680 | 29.02732 | 9873 ft | 272 kts | 141° |
| 2026-04-15 11:08 | 37.08258 | 29.04269 | 9555 ft | 266 kts | 143° |
| 2026-04-15 11:08 | 37.06684 | 29.05388 | 9238 ft | 257 kts | 164° |
| 2026-04-15 11:09 | 37.04947 | 29.05575 | 8832 ft | 250 kts | 194° |
| 2026-04-15 11:09 | 37.03359 | 29.04747 | 8400 ft | 248 kts | 211° |
| 2026-04-15 11:09 | 37.01913 | 29.03604 | 8087 ft | 242 kts | 213° |
| 2026-04-15 11:09 | 37.00524 | 29.02496 | 7920 ft | 239 kts | 212° |
| 2026-04-15 11:10 | 36.99111 | 29.01398 | 7664 ft | 238 kts | 211° |
| 2026-04-15 11:10 | 36.97695 | 29.00321 | 7314 ft | 238 kts | 211° |
| 2026-04-15 11:10 | 36.96297 | 28.99272 | 7046 ft | 231 kts | 210° |
| 2026-04-15 11:10 | 36.94942 | 28.98265 | 6819 ft | 221 kts | 210° |
| 2026-04-15 11:11 | 36.93690 | 28.97244 | 6665 ft | 209 kts | 217° |
| 2026-04-15 11:11 | 36.92619 | 28.96105 | 6575 ft | 195 kts | 220° |
| 2026-04-15 11:11 | 36.91617 | 28.95035 | 6377 ft | 184 kts | 219° |
| 2026-04-15 11:11 | 36.90723 | 28.94077 | 6062 ft | 158 kts | 219° |
| 2026-04-15 11:12 | 36.89888 | 28.93190 | 5504 ft | 156 kts | 219° |
| 2026-04-15 11:12 | 36.89075 | 28.92333 | 5059 ft | 154 kts | 219° |
| 2026-04-15 11:12 | 36.88255 | 28.91463 | 4625 ft | 156 kts | 218° |
| 2026-04-15 11:12 | 36.87433 | 28.90589 | 4255 ft | 154 kts | 219° |
| 2026-04-15 11:13 | 36.86625 | 28.89730 | 3835 ft | 151 kts | 220° |
| 2026-04-15 11:13 | 36.85832 | 28.88905 | 3468 ft | 147 kts | 217° |
| 2026-04-15 11:13 | 36.84978 | 28.88212 | 3252 ft | 146 kts | 210° |
| 2026-04-15 11:13 | 36.84103 | 28.87574 | 3031 ft | 145 kts | 210° |
| 2026-04-15 11:14 | 36.83235 | 28.86939 | 2820 ft | 143 kts | 210° |
| 2026-04-15 11:14 | 36.82379 | 28.86314 | 2622 ft | 141 kts | 210° |
| 2026-04-15 11:14 | 36.81542 | 28.85703 | 2421 ft | 138 kts | 210° |
| 2026-04-15 11:14 | 36.80717 | 28.85098 | 2248 ft | 137 kts | 210° |
| 2026-04-15 11:15 | 36.79902 | 28.84500 | 2011 ft | 135 kts | 211° |
| 2026-04-15 11:15 | 36.79089 | 28.83906 | 1727 ft | 136 kts | 210° |
| 2026-04-15 11:15 | 36.78282 | 28.83318 | 1464 ft | 135 kts | 210° |
| 2026-04-15 11:15 | 36.77467 | 28.82724 | 1235 ft | 137 kts | 209° |
| 2026-04-15 11:16 | 36.76639 | 28.82119 | 1012 ft | 138 kts | 209° |
| 2026-04-15 11:16 | 36.75815 | 28.81508 | 843 ft | 136 kts | 210° |
| 2026-04-15 11:16 | 36.75009 | 28.80896 | 649 ft | 135 kts | 211° |
| 2026-04-15 11:16 | 36.74190 | 28.80341 | 403 ft | 133 kts | 204° |
| 2026-04-15 11:17 | 36.73323 | 28.79949 | 218 ft | 132 kts | 198° |
| 2026-04-15 11:17 | 36.72446 | 28.79634 | 29 ft | 131 kts | 196° |
| 2026-04-15 11:17 | 36.71641 | 28.79365 | 18 ft | 98 kts | 196° |
| 2026-04-15 11:17 | 36.71153 | 28.79196 | 18 ft | 50 kts | 195° |
| 2026-04-15 11:18 | 36.70938 | 28.79123 | 18 ft | 31 kts | 195° |
| 2026-04-15 11:18 | 36.70789 | 28.79073 | 18 ft | 14 kts | 196° |
| 2026-04-15 11:18 | 36.70699 | 28.79012 | 20 ft | 16 kts | 217° |
| 2026-04-15 11:18 | 36.70616 | 28.78928 | 21 ft | 12 kts | 227° |
| 2026-04-15 11:19 | 36.70560 | 28.78852 | 18 ft | 5 kts | 226° |
| 2026-04-15 11:19 | 36.70572 | 28.78815 | 18 ft | 7 kts | 5° |
| 2026-04-15 11:19 | 36.70628 | 28.78818 | 18 ft | 9 kts | 358° |
| 2026-04-15 11:19 | 36.70699 | 28.78828 | 18 ft | 11 kts | 14° |
| 2026-04-15 11:20 | 36.70782 | 28.78856 | 18 ft | 13 kts | 16° |
| 2026-04-15 11:20 | 36.70875 | 28.78889 | 18 ft | 15 kts | 16° |
| 2026-04-15 11:20 | 36.70982 | 28.78924 | 18 ft | 17 kts | 15° |
| 2026-04-15 11:20 | 36.71099 | 28.78964 | 18 ft | 18 kts | 15° |
| 2026-04-15 11:21 | 36.71226 | 28.79008 | 18 ft | 17 kts | 16° |
| 2026-04-15 11:21 | 36.71303 | 28.79030 | 19 ft | 9 kts | 342° |
| 2026-04-15 11:21 | 36.71338 | 28.78957 | 19 ft | 11 kts | 279° |
| 2026-04-15 11:21 | 36.71352 | 28.78872 | 19 ft | 3 kts | 286° |
| 2026-04-15 11:22 | 36.71362 | 28.78844 | 18 ft | 5 kts | 316° |
| 2026-04-15 11:22 | 36.71400 | 28.78844 | 18 ft | 7 kts | 13° |
| 2026-04-15 11:22 | 36.71451 | 28.78861 | 18 ft | 9 kts | 14° |
| 2026-04-15 11:22 | 36.71517 | 28.78883 | 18 ft | 11 kts | 16° |
| 2026-04-15 11:23 | 36.71594 | 28.78910 | 18 ft | 6 kts | 15° |
| 2026-04-15 11:23 | 36.71641 | 28.78927 | 18 ft | 8 kts | 16° |
| 2026-04-15 11:23 | 36.71683 | 28.78927 | 19 ft | 7 kts | 316° |
| 2026-04-15 11:23 | 36.71698 | 28.78878 | 18 ft | 5 kts | 286° |
| 2026-04-15 11:24 | 36.71701 | 28.78865 | 19 ft | 2 kts | 285° |
| 2026-04-15 11:24 | 36.71704 | 28.78853 | 18 ft | 0 kts | 285° |
| 2026-04-15 11:24 | 36.71705 | 28.78847 | 18 ft | 0 kts | 285° |